createdAt,value
2017-05-28T00:05:29.308Z,0
2017-05-28T00:15:38.173Z,0
2017-05-28T00:25:47.072Z,0
2017-05-28T00:35:56.033Z,0
2017-05-28T00:46:05.023Z,0
2017-05-28T00:56:14.065Z,0
2017-05-28T01:06:23.037Z,0
2017-05-28T01:16:32.072Z,0
2017-05-28T01:26:41.127Z,0
2017-05-28T01:36:50.168Z,0
2017-05-28T01:46:59.312Z,0
2017-05-28T01:57:08.586Z,0
2017-05-28T02:07:17.864Z,0
2017-05-28T02:17:27.208Z,0
2017-05-28T02:27:36.568Z,0
2017-05-28T02:37:45.924Z,4
2017-05-28T02:47:55.278Z,16
2017-05-28T02:58:04.720Z,48
2017-05-28T03:08:14.017Z,156
2017-05-28T03:18:23.419Z,380
2017-05-28T03:28:32.825Z,836
2017-05-28T03:38:42.211Z,1564
2017-05-28T03:48:51.454Z,2904
2017-05-28T03:59:00.614Z,3640
2017-05-28T04:09:09.718Z,3204
2017-05-28T04:19:18.759Z,2504
2017-05-28T04:29:27.766Z,2660
2017-05-28T04:39:36.783Z,3084
2017-05-28T04:49:45.780Z,3988
2017-05-28T04:59:54.792Z,4072
2017-05-28T05:10:03.828Z,3928
2017-05-28T05:20:12.860Z,3920
2017-05-28T05:30:21.936Z,4480
2017-05-28T05:40:30.955Z,3464
2017-05-28T05:50:39.949Z,2656
2017-05-28T06:00:49.038Z,6656
2017-05-28T06:10:58.156Z,9144
2017-05-28T06:21:07.140Z,7676
2017-05-28T06:31:16.140Z,1544
2017-05-28T06:41:25.223Z,2096
2017-05-28T06:51:34.411Z,5676
2017-05-28T07:01:43.586Z,13004
2017-05-28T07:11:52.624Z,21312
2017-05-28T07:22:01.542Z,21728
2017-05-28T07:32:10.408Z,44064
2017-05-28T07:42:19.013Z,75392
2017-05-28T07:52:27.148Z,52832
2017-05-28T08:02:34.967Z,92288
2017-05-28T08:12:42.670Z,81184
2017-05-28T08:22:50.186Z,95648
2017-05-28T08:32:57.482Z,93728
2017-05-28T08:43:04.711Z,78560
2017-05-28T08:53:11.931Z,99168
2017-05-28T09:03:19.169Z,60640
2017-05-28T09:13:26.368Z,97152
2017-05-28T09:23:33.460Z,88448
2017-05-28T09:33:40.479Z,96576
2017-05-28T09:43:47.543Z,70880
2017-05-28T09:53:54.711Z,30016
2017-05-28T10:04:02.198Z,24864
2017-05-28T10:14:10.060Z,60768
2017-05-28T10:24:17.946Z,54080
2017-05-28T10:34:25.550Z,56992
2017-05-28T10:44:32.925Z,43872
2017-05-28T10:54:40.349Z,52352
2017-05-28T11:04:47.870Z,43488
2017-05-28T11:14:55.489Z,47776
2017-05-28T11:25:03.177Z,163616
2017-05-28T11:35:10.633Z,61216
2017-05-28T11:45:17.893Z,73600
2017-05-28T11:55:25.021Z,140608
2017-05-28T12:05:32.129Z,127872
2017-05-28T12:15:39.108Z,122496
2017-05-28T12:25:46.032Z,113600
2017-05-28T12:35:52.967Z,108352
2017-05-28T12:45:59.833Z,107040
2017-05-28T12:56:06.714Z,108320
2017-05-28T13:06:13.600Z,107168
2017-05-28T13:16:20.411Z,105792
2017-05-28T13:26:27.296Z,107808
2017-05-28T13:36:34.044Z,97888
2017-05-28T13:46:40.712Z,96832
2017-05-28T13:56:47.432Z,96768
2017-05-28T14:06:54.105Z,77408
2017-05-28T14:17:00.780Z,69728
2017-05-28T14:27:07.506Z,70752
2017-05-28T14:37:14.238Z,72128
2017-05-28T14:47:20.890Z,58080
2017-05-28T14:57:27.506Z,62464
2017-05-28T15:07:34.149Z,35520
2017-05-28T15:17:40.945Z,49088
2017-05-28T15:27:47.675Z,47456
2017-05-28T15:37:54.433Z,32000
2017-05-28T15:48:01.332Z,31328
2017-05-28T15:58:08.277Z,27200
2017-05-28T16:08:15.286Z,31456
2017-05-28T16:18:22.322Z,42880
2017-05-28T16:28:29.289Z,32512
2017-05-28T16:38:36.245Z,23712
2017-05-28T16:48:43.168Z,20960
2017-05-28T16:58:50.021Z,18464
2017-05-28T17:08:56.845Z,18464
2017-05-28T17:19:03.744Z,12748
2017-05-28T17:29:10.985Z,7364
2017-05-28T17:39:18.417Z,7524
2017-05-28T17:49:25.981Z,10180
2017-05-28T17:59:33.551Z,9748
2017-05-28T18:09:41.219Z,8416
2017-05-28T18:19:48.972Z,7292
2017-05-28T18:29:56.808Z,6216
2017-05-28T18:40:04.690Z,6192
2017-05-28T18:50:12.563Z,5264
2017-05-28T19:00:20.441Z,4132
2017-05-28T19:10:28.402Z,2612
2017-05-28T19:20:36.511Z,948
2017-05-28T19:30:44.715Z,428
2017-05-28T19:40:53.048Z,204
2017-05-28T19:51:01.454Z,72
2017-05-28T20:01:09.924Z,20
2017-05-28T20:11:18.465Z,4
2017-05-28T20:21:26.980Z,0
2017-05-28T20:31:35.520Z,0
2017-05-28T20:41:44.086Z,0
2017-05-28T20:51:52.674Z,0
2017-05-28T21:02:01.322Z,0
2017-05-28T21:12:10.005Z,0
2017-05-28T21:22:18.790Z,0
2017-05-28T21:32:27.610Z,0
2017-05-28T21:42:36.376Z,0
2017-05-28T21:52:45.125Z,0
2017-05-28T22:02:53.926Z,0
2017-05-28T22:13:02.751Z,0
2017-05-28T22:23:11.603Z,0
2017-05-28T22:33:20.494Z,0
2017-05-28T22:43:29.349Z,0
2017-05-28T22:53:38.170Z,0
2017-05-28T23:03:47.047Z,0
2017-05-28T23:13:56.010Z,0
2017-05-28T23:24:04.892Z,0
2017-05-28T23:34:13.807Z,0
2017-05-28T23:44:22.766Z,0
2017-05-28T23:54:31.729Z,0
